PAKT/KTN METAR and TAF weather

Enter ICAO airport designator
Station Type Date Time Source
PAKT METAR 2019/10/22 16:53 UTC NOAA

PAKT 221653Z 13006KT 10SM FEW032 BKN045 07/06 A3018 RMK RAE01 SLP219 HARBOR WIND 12005KT P0000 T00670056 VIA AUTODIAL


Station Type Date Time Source
PAKT Decoded METAR 2019/10/22 16:53 UTC NOAA

KETCHIKAN INTERNATIONAL AIRPORT , AK, United States (PAKT) 55-21N 131-43W 25M
Oct 22, 2019 - 12:53 PM EDT / 2019.10.22 1653 UTC
Wind: from the SE (130 degrees) at 7 MPH (6 KT):0
Visibility: 10 mile(s):0
Sky conditions: mostly cloudy
Precipitation last hour: A trace
Temperature: 44.1 F (6.7 C)
Dew Point: 42.1 F (5.6 C)
Relative Humidity: 92%
Pressure (altimeter): 30.18 in. Hg (1022 hPa)
ob: PAKT 221653Z 13006KT 10SM FEW032 BKN045 07/06 A3018 RMK RAE01 SLP219 HARBOR WIND 12005KT P0000 T00670056 VIA AUTODIAL
cycle: 17

Station Type Date Time Source
PAKT TAF 2019/10/22 12:45 UTC NOAA

TAF PAKT 221142Z 2212/2312 33007KT P6SM SCT030 BKN150 WS020/31030KT
FM221500 VRB05KT P6SM -SHRA OVC025
FM222200 13007KT P6SM -SHRA OVC018
FM230600 13005KT P6SM VCSH OVC010
AMD LTD TO CLD VIS AND WIND 2212/2215

Example: see airport list